.
WxDataArchive / Data Records for 2008-11-21
2008-11-20 November 2008 2008-11-22

Data Records for Friday, 21 November 2008

Time	Temp	Chill	HIndex	Humid	Dewpt	 Wind 	HiWind	WindDir	Rain 	Barom 
-----	----	-----	------	-----	-----	------	------	-------	-----	----- 
00:00	26.4	26.4	26.4	60	14.4	1	2	338	0.00	30.202 
00:05	26.4	26.4	26.4	61	14.8	0	3	315	0.00	30.203 
00:10	26.3	26.3	26.3	63	15.4	1	3	315	0.00	30.204 
00:15	26.1	26.1	26.1	65	16.0	0	3	315	0.00	30.207 
00:20	26.0	26.0	26.0	69	17.2	1	3	315	0.00	30.207 
00:25	26.0	26.0	26.0	70	17.6	1	3	0	0.00	30.209 
00:30	26.0	26.0	26.0	68	16.9	1	7	338	0.00	30.208 
00:35	26.0	26.0	26.0	68	16.9	0	3	338	0.00	30.209 
00:40	26.0	26.0	26.0	69	17.2	0	2	338	0.00	30.209 
00:45	25.8	25.8	25.8	69	17.1	1	3	292	0.00	30.211 
00:50	25.8	25.8	25.8	68	16.7	1	3	292	0.00	30.211 
00:55	25.7	25.7	25.7	68	16.6	1	3	0	0.00	30.212 
01:00	25.6	25.6	25.6	67	16.2	0	3	338	0.00	30.213 
01:05	25.4	25.4	25.4	67	16.0	0	4	338	0.00	30.216 
01:10	25.4	25.4	25.4	67	16.0	1	3	292	0.00	30.216 
01:15	25.3	25.3	25.3	67	15.9	0	2	292	0.00	30.216 
01:20	25.3	25.3	25.3	65	15.2	1	5	292	0.00	30.217 
01:25	25.3	25.3	25.3	64	14.9	1	4	338	0.00	30.217 
01:30	25.3	25.3	25.3	63	14.5	1	3	315	0.00	30.218 
01:35	25.3	25.3	25.3	63	14.5	1	4	270	0.00	30.219 
01:40	25.1	25.1	25.1	65	15.0	1	3	315	0.00	30.223 
01:45	25.1	25.1	25.1	66	15.4	1	3	292	0.00	30.227 
01:50	25.0	25.0	25.0	65	14.9	1	5	292	0.00	30.230 
01:55	24.8	24.8	24.8	65	14.7	1	4	292	0.00	30.231 
02:00	24.8	24.8	24.8	65	14.7	1	3	292	0.00	30.232 
02:05	24.7	24.7	24.7	65	14.6	1	3	338	0.00	30.234 
02:10	24.7	24.7	24.7	65	14.6	1	4	315	0.00	30.235 
02:15	24.7	24.7	24.7	65	14.6	1	2	270	0.00	30.236 
02:20	24.5	24.5	24.5	65	14.4	0	3	270	0.00	30.240 
02:25	24.5	24.5	24.5	65	14.4	1	2	315	0.00	30.241 
02:30	24.4	24.4	24.4	66	14.7	1	2	315	0.00	30.245 
02:35	24.4	24.4	24.4	67	15.0	0	2	315	0.00	30.247 
02:40	24.4	24.4	24.4	68	15.4	0	2	338	0.00	30.249 
02:45	24.4	24.4	24.4	68	15.4	0	2	315	0.00	30.250 
02:50	24.4	24.4	24.4	68	15.4	1	6	292	0.00	30.250 
02:55	24.2	24.2	24.2	68	15.2	0	1	315	0.00	30.251 
03:00	24.2	24.2	24.2	67	14.8	1	4	338	0.00	30.251 
03:05	24.1	24.1	24.1	67	14.8	0	2	292	0.00	30.252 
03:10	23.9	23.9	23.9	67	14.6	0	2	338	0.00	30.254 
03:15	23.9	23.9	23.9	67	14.6	0	3	292	0.00	30.255 
03:20	23.9	23.9	23.9	67	14.6	0	2	315	0.00	30.258 
03:25	23.9	23.9	23.9	66	14.2	0	2	315	0.00	30.259 
03:30	23.9	23.9	23.9	66	14.2	1	3	315	0.00	30.262 
03:35	23.9	23.9	23.9	66	14.2	0	2	292	0.00	30.263 
03:40	23.8	23.8	23.8	66	14.1	1	2	292	0.00	30.264 
03:45	23.6	23.6	23.6	65	13.6	0	2	315	0.00	30.264 
03:50	23.5	23.5	23.5	65	13.5	0	3	338	0.00	30.265 
03:55	23.3	23.3	23.3	66	13.6	0	2	315	0.00	30.267 
04:00	23.2	23.2	23.2	66	13.6	0	1	315	0.00	30.267 
04:05	23.2	23.2	23.2	66	13.6	0	2	315	0.00	30.267 
04:10	23.2	23.2	23.2	66	13.6	0	2	338	0.00	30.268 
04:15	23.3	23.3	23.3	66	13.6	0	3	248	0.00	30.269 
04:20	23.3	23.3	23.3	66	13.6	0	3	248	0.00	30.269 
04:25	23.3	23.3	23.3	66	13.6	0	3	338	0.00	30.271 
04:30	23.2	23.2	23.2	66	13.6	0	2	338	0.00	30.275 
04:35	23.0	23.0	23.0	66	13.4	0	2	292	0.00	30.279 
04:40	22.9	22.9	22.9	66	13.3	0	1	292	0.00	30.280 
04:45	22.7	22.7	22.7	67	13.4	0	3	270	0.00	30.281 
04:50	22.5	22.5	22.5	67	13.2	0	2	248	0.00	30.283 
04:55	22.4	22.4	22.4	67	13.1	0	1	248	0.00	30.286 
05:00	22.2	22.2	22.2	68	13.3	0	1	248	0.00	30.288 
05:05	22.1	22.1	22.1	68	13.2	0	1	248	0.00	30.296 
05:10	21.9	21.9	21.9	69	13.3	0	1	248	0.00	30.297 
05:15	21.8	21.8	21.8	69	13.2	0	2	248	0.00	30.298 
05:20	21.8	21.8	21.8	70	13.5	0	1	248	0.00	30.300 
05:25	21.6	21.6	21.6	70	13.4	0	1	248	0.00	30.300 
05:30	21.4	21.4	21.4	71	13.5	0	1	248	0.00	30.302 
05:35	21.3	21.3	21.3	72	13.7	0	1	270	0.00	30.303 
05:40	21.1	21.1	21.1	72	13.5	0	1	270	0.00	30.305 
05:45	21.1	21.1	21.1	72	13.5	0	1	270	0.00	30.306 
05:50	21.0	21.0	21.0	73	13.7	0	1	270	0.00	30.307 
05:55	20.8	20.8	20.8	73	13.5	0	1	270	0.00	30.307 
06:00	20.6	20.6	20.6	73	13.3	0	1	270	0.00	30.311 
06:05	20.5	20.5	20.5	74	13.6	0	1	270	0.00	30.316 
06:10	20.5	20.5	20.5	75	13.9	0	1	270	0.00	30.316 
06:15	20.3	20.3	20.3	75	13.7	0	1	270	0.00	30.321 
06:20	20.3	20.3	20.3	76	14.0	0	2	270	0.00	30.322 
06:25	20.3	20.3	20.3	76	14.0	0	2	270	0.00	30.324 
06:30	20.3	20.3	20.3	76	14.0	0	2	270	0.00	30.328 
06:35	20.3	20.3	20.3	77	14.3	0	1	270	0.00	30.332 
06:40	20.3	20.3	20.3	77	14.3	0	2	270	0.00	30.333 
06:45	20.3	20.3	20.3	77	14.3	0	2	270	0.00	30.334 
06:50	20.3	20.3	20.3	78	14.6	0	2	270	0.00	30.336 
06:55	20.3	20.3	20.3	78	14.6	0	2	270	0.00	30.338 
07:00	20.3	20.3	20.3	78	14.6	0	2	270	0.00	30.342 
07:05	20.3	20.3	20.3	78	14.6	1	2	270	0.00	30.348 
07:10	20.3	20.3	20.3	79	14.8	1	2	248	0.00	30.349 
07:15	20.3	20.3	20.3	79	14.8	0	2	248	0.00	30.350 
07:20	20.3	20.3	20.3	79	14.8	0	1	270	0.00	30.352 
07:25	20.2	20.2	20.2	79	14.8	0	1	270	0.00	30.354 
07:30	20.0	20.0	20.0	79	14.6	0	1	270	0.00	30.355 
07:35	20.0	20.0	20.0	79	14.6	0	1	270	0.00	30.356 
07:40	19.9	19.9	19.9	79	14.5	0	1	270	0.00	30.356 
07:45	19.9	19.9	19.9	79	14.5	0	2	270	0.00	30.360 
07:50	19.7	19.7	19.7	79	14.3	0	1	270	0.00	30.366 
07:55	19.7	19.7	19.7	79	14.3	0	1	270	0.00	30.368 
08:00	19.9	19.9	19.9	80	14.7	0	1	270	0.00	30.370 
08:05	20.0	20.0	20.0	80	14.8	0	1	270	0.00	30.370 
08:10	20.5	20.5	20.5	80	15.3	0	2	270	0.00	30.370 
08:15	21.0	21.0	21.0	79	15.5	0	2	270	0.00	30.373 
08:20	21.3	21.3	21.3	79	15.8	0	2	270	0.00	30.375 
08:25	21.4	21.4	21.4	78	15.6	1	3	248	0.00	30.376 
08:30	21.4	21.4	21.4	78	15.6	0	2	270	0.00	30.381 
08:35	21.6	21.6	21.6	78	15.8	0	2	270	0.00	30.382 
08:40	21.8	21.8	21.8	77	15.7	0	2	270	0.00	30.385 
08:45	22.1	22.1	22.1	77	16.0	1	4	270	0.00	30.389 
08:50	22.2	22.2	22.2	77	16.1	1	2	270	0.00	30.392 
08:55	22.5	22.5	22.5	76	16.1	1	4	270	0.00	30.396 
09:00	22.9	22.9	22.9	76	16.5	1	3	248	0.00	30.395 
09:05	23.2	23.2	23.2	75	16.5	1	3	270	0.00	30.397 
09:10	23.3	23.3	23.3	74	16.3	1	3	315	0.00	30.398 
09:15	23.5	23.5	23.5	74	16.5	1	3	270	0.00	30.397 
09:20	23.6	23.6	23.6	74	16.6	1	3	270	0.00	30.398 
09:25	23.9	23.9	23.9	73	16.5	1	3	292	0.00	30.398 
09:30	24.1	24.1	24.1	73	16.7	1	3	225	0.00	30.400 
09:35	24.2	24.2	24.2	72	16.5	1	3	248	0.00	30.403 
09:40	24.4	24.4	24.4	72	16.7	0	2	315	0.00	30.407 
09:45	24.7	24.7	24.7	70	16.3	1	3	270	0.00	30.409 
09:50	24.7	24.7	24.7	69	16.0	2	4	248	0.00	30.410 
09:55	24.8	24.8	24.8	68	15.8	1	3	248	0.00	30.411 
10:00	25.0	25.0	25.0	67	15.6	1	4	338	0.00	30.414 
10:05	25.1	25.1	25.1	67	15.7	1	2	315	0.00	30.414 
10:10	25.4	25.4	25.4	67	16.0	0	2	315	0.00	30.415 
10:15	25.6	25.6	25.6	68	16.5	1	3	248	0.00	30.416 
10:20	25.7	25.7	25.7	68	16.6	1	3	248	0.00	30.416 
10:25	25.7	25.7	25.7	67	16.3	1	3	248	0.00	30.416 
10:30	26.0	26.0	26.0	67	16.6	1	2	248	0.00	30.420 
10:35	26.0	26.0	26.0	66	16.2	1	3	225	0.00	30.424 
10:40	26.1	26.1	26.1	66	16.3	1	3	248	0.00	30.427 
10:45	26.1	26.1	26.1	65	16.0	1	4	270	0.00	30.427 
10:50	26.4	26.4	26.4	65	16.3	1	3	248	0.00	30.428 
10:55	26.4	26.4	26.4	65	16.3	1	4	270	0.00	30.429 
11:00	26.3	26.3	26.3	64	15.8	1	5	248	0.00	30.432 
11:05	26.4	26.4	26.4	65	16.3	1	4	248	0.00	30.434 
11:10	26.7	26.7	26.7	65	16.5	1	3	338	0.00	30.433 
11:15	27.2	27.2	27.2	65	17.0	1	3	248	0.00	30.432 
11:20	27.5	27.5	27.5	65	17.3	2	5	270	0.00	30.434 
11:25	27.6	27.6	27.6	65	17.4	1	4	248	0.00	30.432 
11:30	27.6	27.6	27.6	65	17.4	2	4	270	0.00	30.433 
11:35	27.3	27.3	27.3	65	17.1	2	5	315	0.00	30.434 
11:40	27.0	27.0	27.0	67	17.5	2	4	270	0.00	30.437 
11:45	27.0	27.0	27.0	68	17.9	2	5	248	0.00	30.435 
11:50	27.5	27.5	27.5	69	18.7	1	4	270	0.00	30.434 
11:55	27.6	27.6	27.6	65	17.4	1	3	315	0.00	30.433 
12:00	27.9	27.9	27.9	63	17.0	1	2	225	0.00	30.434 
12:05	28.2	28.2	28.2	63	17.2	1	3	315	0.00	30.432 
12:10	27.9	27.9	27.9	61	16.2	1	2	338	0.00	30.431 
12:15	27.8	27.8	27.8	60	15.7	1	3	292	0.00	30.433 
12:20	27.8	27.8	27.8	62	16.5	1	3	338	0.00	30.432 
12:25	28.1	28.1	28.1	63	17.2	1	4	338	0.00	30.433 
12:30	28.4	28.4	28.4	63	17.4	1	4	270	0.00	30.435 
12:35	28.2	28.2	28.2	63	17.2	2	4	248	0.00	30.434 
12:40	27.9	27.9	27.9	63	17.0	2	4	270	0.00	30.435 
12:45	28.1	28.1	28.1	64	17.5	2	4	248	0.00	30.437 
12:50	28.1	28.1	28.1	65	17.9	1	4	270	0.00	30.439 
12:55	28.4	28.4	28.4	65	18.2	2	4	270	0.00	30.436 
13:00	29.0	29.0	29.0	66	19.1	1	3	248	0.00	30.437 
13:05	29.1	29.1	29.1	62	17.7	2	4	248	0.00	30.436 
13:10	28.2	28.2	28.2	62	16.9	2	5	248	0.00	30.440 
13:15	27.6	27.6	27.6	66	17.8	1	4	292	0.00	30.443 
13:20	27.5	27.5	27.5	67	18.0	2	5	270	0.00	30.443 
13:25	27.5	27.5	27.5	68	18.3	1	3	270	0.00	30.444 
13:30	27.6	27.6	27.6	68	18.4	1	3	270	0.00	30.444 
13:35	27.8	27.8	27.8	67	18.3	1	4	270	0.00	30.444 
13:40	27.9	27.9	27.9	67	18.4	1	5	338	0.00	30.445 
13:45	27.9	27.9	27.9	65	17.7	1	5	338	0.00	30.445 
13:50	27.9	27.9	27.9	65	17.7	2	6	270	0.00	30.445 
13:55	27.9	27.9	27.9	64	17.3	2	5	292	0.00	30.445 
14:00	27.9	27.9	27.9	65	17.7	1	4	315	0.00	30.444 
14:05	28.1	28.1	28.1	64	17.5	1	4	292	0.00	30.444 
14:10	28.1	28.1	28.1	64	17.5	2	5	270	0.00	30.445 
14:15	27.9	27.9	27.9	68	18.7	1	3	248	0.00	30.445 
14:20	27.9	27.9	27.9	69	19.1	2	6	248	0.00	30.445 
14:25	28.2	28.2	28.2	66	18.3	1	3	225	0.00	30.444 
14:30	28.2	28.2	28.2	63	17.2	1	4	338	0.00	30.444 
14:35	28.5	28.5	28.5	63	17.5	1	4	270	0.00	30.443 
14:40	29.1	29.1	29.1	61	17.4	2	5	248	0.00	30.442 
14:45	29.1	29.1	29.1	59	16.6	2	5	270	0.00	30.443 
14:50	29.0	29.0	29.0	58	16.1	2	7	270	0.00	30.443 
14:55	28.7	28.7	28.7	58	15.8	2	6	248	0.00	30.444 
15:00	28.4	28.4	28.4	61	16.7	2	4	270	0.00	30.444 
15:05	28.4	28.4	28.4	61	16.7	2	4	270	0.00	30.447 
15:10	28.4	28.4	28.4	63	17.4	2	5	270	0.00	30.448 
15:15	28.1	28.1	28.1	64	17.5	2	4	270	0.00	30.450 
15:20	27.8	27.8	27.8	67	18.3	2	6	292	0.00	30.453 
15:25	27.5	27.5	27.5	71	19.4	1	4	292	0.00	30.453 
15:30	27.2	27.2	27.2	76	20.7	1	5	270	0.00	30.458 
15:35	26.9	26.9	26.9	78	21.0	2	4	248	0.00	30.457 
15:40	26.6	26.6	26.6	77	20.4	2	4	270	0.00	30.458 
15:45	26.6	26.6	26.6	77	20.4	1	3	270	0.00	30.455 
15:50	26.6	26.6	26.6	76	20.1	1	3	270	0.00	30.456 
15:55	26.9	26.9	26.9	73	19.4	1	5	270	0.00	30.458 
16:00	27.0	27.0	27.0	72	19.2	2	5	270	0.00	30.459 
16:05	27.0	27.0	27.0	69	18.2	1	3	315	0.00	30.461 
16:10	27.2	27.2	27.2	67	17.7	1	4	270	0.00	30.461 
16:15	27.3	27.3	27.3	66	17.5	1	3	270	0.00	30.461 
16:20	27.5	27.5	27.5	65	17.3	1	3	270	0.00	30.460 
16:25	27.5	27.5	27.5	66	17.7	1	2	270	0.00	30.460 
16:30	27.6	27.6	27.6	66	17.8	1	3	270	0.00	30.457 
16:35	27.8	27.8	27.8	66	17.9	1	2	248	0.00	30.460 
16:40	27.8	27.8	27.8	66	17.9	1	6	248	0.00	30.462 
16:45	27.5	27.5	27.5	66	17.7	2	5	338	0.00	30.462 
16:50	27.3	27.3	27.3	65	17.1	2	5	270	0.00	30.465 
16:55	27.2	27.2	27.2	65	17.0	1	5	315	0.00	30.467 
17:00	27.0	27.0	27.0	64	16.5	1	5	270	0.00	30.467 
17:05	26.9	26.9	26.9	64	16.4	1	4	270	0.00	30.468 
17:10	26.7	26.7	26.7	64	16.2	1	6	270	0.00	30.469 
17:15	26.6	26.6	26.6	63	15.7	1	4	338	0.00	30.469 
17:20	26.4	26.4	26.4	63	15.5	1	3	315	0.00	30.471 
17:25	26.1	26.1	26.1	63	15.3	1	3	315	0.00	30.474 
17:30	26.0	26.0	26.0	64	15.5	1	3	270	0.00	30.477 
17:35	26.0	26.0	26.0	64	15.5	1	3	270	0.00	30.479 
17:40	25.8	25.8	25.8	64	15.3	1	3	270	0.00	30.481 
17:45	25.6	25.6	25.6	64	15.1	0	3	0	0.00	30.482 
17:50	25.4	25.4	25.4	64	14.9	1	3	315	0.00	30.484 
17:55	25.3	25.3	25.3	64	14.9	1	3	315	0.00	30.487 
18:00	25.3	25.3	25.3	64	14.9	1	3	338	0.00	30.490 
18:05	25.1	25.1	25.1	65	15.0	0	3	338	0.00	30.494 
18:10	25.1	25.1	25.1	65	15.0	0	2	315	0.00	30.497 
18:15	25.1	25.1	25.1	64	14.7	1	4	338	0.00	30.497 
18:20	25.0	25.0	25.0	64	14.6	1	2	315	0.00	30.498 
18:25	25.0	25.0	25.0	64	14.6	1	3	248	0.00	30.498 
18:30	25.0	25.0	25.0	64	14.6	1	2	270	0.00	30.498 
18:35	24.8	24.8	24.8	64	14.4	1	3	270	0.00	30.499 
18:40	24.8	24.8	24.8	63	14.0	1	3	248	0.00	30.500 
18:45	24.5	24.5	24.5	63	13.7	1	4	270	0.00	30.499 
18:50	24.4	24.4	24.4	62	13.3	1	2	315	0.00	30.500 
18:55	24.2	24.2	24.2	61	12.7	1	2	315	0.00	30.499 
19:00	24.1	24.1	24.1	60	12.3	1	2	315	0.00	30.501 
19:05	24.1	24.1	24.1	59	11.9	1	3	248	0.00	30.500 
19:10	23.9	23.9	23.9	59	11.7	0	2	248	0.00	30.501 
19:15	23.8	23.8	23.8	60	12.0	0	2	248	0.00	30.502 
19:20	23.6	23.6	23.6	60	11.8	0	2	315	0.00	30.502 
19:25	23.5	23.5	23.5	60	11.7	0	1	315	0.00	30.503 
19:30	23.2	23.2	23.2	61	11.8	0	1	315	0.00	30.509 
19:35	23.0	23.0	23.0	62	11.9	0	1	315	0.00	30.511 
19:40	22.9	22.9	22.9	62	11.9	0	2	225	0.00	30.511 
19:45	22.7	22.7	22.7	63	12.0	0	1	225	0.00	30.511 
19:50	22.5	22.5	22.5	64	12.2	0	1	225	0.00	30.512 
19:55	22.4	22.4	22.4	65	12.4	0	1	225	0.00	30.514 
20:00	22.2	22.2	22.2	65	12.3	0	1	225	0.00	30.514 
20:05	22.1	22.1	22.1	65	12.2	0	0	---	0.00	30.511 
20:10	22.1	22.1	22.1	65	12.2	0	1	225	0.00	30.510 
20:15	21.9	21.9	21.9	65	12.0	0	1	225	0.00	30.508 
20:20	21.8	21.8	21.8	65	11.9	0	1	225	0.00	30.508 
20:25	21.6	21.6	21.6	65	11.7	0	1	225	0.00	30.511 
20:30	21.6	21.6	21.6	65	11.7	0	1	225	0.00	30.512 
20:35	21.4	21.4	21.4	65	11.5	0	0	---	0.00	30.512 
20:40	21.3	21.3	21.3	65	11.4	0	1	225	0.00	30.514 
20:45	21.1	21.1	21.1	65	11.2	0	0	---	0.00	30.514 
20:50	21.0	21.0	21.0	66	11.5	0	0	---	0.00	30.512 
20:55	20.8	20.8	20.8	66	11.3	0	1	225	0.00	30.509 
21:00	20.8	20.8	20.8	66	11.3	0	1	225	0.00	30.511 
21:05	20.8	20.8	20.8	66	11.3	0	1	225	0.00	30.508 
21:10	20.6	20.6	20.6	66	11.1	0	1	225	0.00	30.510 
21:15	20.6	20.6	20.6	66	11.1	0	1	225	0.00	30.513 
21:20	20.6	20.6	20.6	66	11.1	0	1	225	0.00	30.513 
21:25	20.5	20.5	20.5	66	11.0	0	1	225	0.00	30.513 
21:30	20.5	20.5	20.5	66	11.0	0	1	225	0.00	30.513 
21:35	20.5	20.5	20.5	67	11.3	0	2	225	0.00	30.514 
21:40	20.5	20.5	20.5	67	11.3	0	1	225	0.00	30.514 
21:45	20.3	20.3	20.3	67	11.1	0	1	225	0.00	30.514 
21:50	20.3	20.3	20.3	67	11.1	0	2	225	0.00	30.516 
21:55	20.3	20.3	20.3	67	11.1	0	2	225	0.00	30.516 
22:00	20.3	20.3	20.3	66	10.8	0	2	225	0.00	30.515 
22:05	20.3	20.3	20.3	66	10.8	0	2	225	0.00	30.514 
22:10	20.3	20.3	20.3	66	10.8	0	2	225	0.00	30.514 
22:15	20.3	20.3	20.3	65	10.4	0	1	225	0.00	30.514 
22:20	20.3	20.3	20.3	65	10.4	0	2	225	0.00	30.514 
22:25	20.3	20.3	20.3	64	10.1	0	1	225	0.00	30.514 
22:30	20.3	20.3	20.3	64	10.1	0	2	225	0.00	30.514 
22:35	20.3	20.3	20.3	63	9.7	0	1	225	0.00	30.513 
22:40	20.5	20.5	20.5	62	9.6	0	3	225	0.00	30.514 
22:45	20.5	20.5	20.5	62	9.6	1	3	248	0.00	30.513 
22:50	20.6	20.6	20.6	61	9.3	0	3	248	0.00	30.514 
22:55	20.6	20.6	20.6	61	9.3	0	3	248	0.00	30.512 
23:00	20.6	20.6	20.6	61	9.3	1	3	248	0.00	30.512 
23:05	20.8	20.8	20.8	60	9.1	1	3	248	0.00	30.509 
23:10	20.6	20.6	20.6	60	8.9	0	2	248	0.00	30.511 
23:15	20.6	20.6	20.6	61	9.3	0	2	248	0.00	30.510 
23:20	20.6	20.6	20.6	61	9.3	1	4	248	0.00	30.511 
23:25	20.6	20.6	20.6	60	8.9	1	3	248	0.00	30.511 
23:30	20.6	20.6	20.6	61	9.3	1	5	248	0.00	30.511 
23:35	20.6	20.6	20.6	61	9.3	1	3	248	0.00	30.511 
23:40	20.6	20.6	20.6	61	9.3	1	3	248	0.00	30.510 
23:45	20.5	20.5	20.5	61	9.2	1	4	225	0.00	30.511 
23:50	20.6	20.6	20.6	61	9.3	1	5	248	0.00	30.510 
23:55	20.6	20.6	20.6	60	8.9	2	7	248	0.00	30.511 

CoCoRaHS
IN-AL-39
A2 Web Hosting
Creative Commons License
GoDaddy
Look for:

loaded 2017-10-20 19:43:51 • last modified 2010-11-18 10:43:29
Privacy PolicyDisclaimer
• wx.awcolley.com is powered by PmWiki v.2002016 •
• all content (unless otherwise noted) © 2017 A W Colley